Time;durP1;ratioP1;P1;durP2;ratioP2;P2;SDS_P1;SDS_P2;PMS_P1;PMS_P2;Temp;Humidity;BMP_temperature;BMP_pressure;BME280_temperature;BME280_humidity;BME280_pressure;Samples;Min_cycle;Max_cycle;Signal;HPM_P1;HPM_P2
2023/10/07 00:02:13;;;;;;;19.27;4.88;;;17.50;99.90;;;;;;5130265;28;20093;-72
2023/10/07 00:04:41;;;;;;;11.75;4.07;;;17.50;99.90;;;;;;5131245;28;20047;-72
2023/10/07 00:07:10;;;;;;;11.68;4.97;;;17.50;99.90;;;;;;5131229;28;20059;-71
2023/10/07 00:09:41;;;;;;;12.90;4.20;;;17.50;99.90;;;;;;5130580;28;20083;-72
2023/10/07 00:12:13;;;;;;;14.65;4.85;;;17.60;99.90;;;;;;5131338;28;20051;-72
2023/10/07 00:14:40;;;;;;;13.93;4.80;;;17.50;99.90;;;;;;5129529;28;20039;-72
2023/10/07 00:17:12;;;;;;;13.75;4.20;;;17.60;99.90;;;;;;5130105;28;20050;-72
2023/10/07 00:19:41;;;;;;;11.57;3.65;;;17.50;99.90;;;;;;5130962;28;20047;-72
2023/10/07 00:22:09;;;;;;;11.25;4.15;;;17.60;99.90;;;;;;5130558;28;20486;-71
2023/10/07 00:24:40;;;;;;;12.57;4.78;;;17.50;99.90;;;;;;5130887;28;20070;-71
2023/10/07 00:27:18;;;;;;;13.85;4.05;;;17.50;99.90;;;;;;5130665;28;20138;-72
2023/10/07 00:29:54;;;;;;;12.27;4.50;;;17.50;99.90;;;;;;5130609;28;20058;-71
2023/10/07 00:32:26;;;;;;;10.95;4.13;;;17.60;99.90;;;;;;5131015;28;20448;-72
2023/10/07 00:34:55;;;;;;;16.20;4.40;;;17.60;99.90;;;;;;5130660;28;20126;-71
2023/10/07 00:37:23;;;;;;;15.77;4.25;;;17.60;99.90;;;;;;5130462;28;20550;-72
2023/10/07 00:39:52;;;;;;;13.63;4.40;;;17.60;99.90;;;;;;5130902;28;20051;-71
2023/10/07 00:42:19;;;;;;;10.70;4.50;;;17.60;99.90;;;;;;5130438;28;20053;-72
2023/10/07 00:44:52;;;;;;;16.80;3.90;;;17.60;99.90;;;;;;5130567;28;20512;-71
2023/10/07 00:47:19;;;;;;;17.23;5.47;;;17.60;99.90;;;;;;5130912;28;20130;-71
2023/10/07 00:49:53;;;;;;;14.05;4.07;;;17.50;99.90;;;;;;5137751;27;20135;-71
2023/10/07 00:52:41;;;;;;;14.13;4.57;;;17.50;99.90;;;;;;5113939;27;20047;-71
2023/10/07 00:55:17;;;;;;;16.77;4.78;;;17.50;99.90;;;;;;5132402;27;20159;-71
2023/10/07 00:57:53;;;;;;;11.75;3.97;;;17.50;99.90;;;;;;5135605;27;20134;-71
2023/10/07 01:03:13;;;;;;;14.10;4.55;;;17.30;99.90;;;;;;5134655;27;20046;-72
2023/10/07 01:05:53;;;;;;;11.85;4.60;;;17.20;99.90;;;;;;5137036;27;20072;-71
2023/10/07 01:08:26;;;;;;;;;;;17.10;99.90;;;;;;5138131;27;20439;-70
2023/10/07 01:10:54;;;;;;;14.85;4.72;;;17.10;99.90;;;;;;5137611;27;19919;-71
2023/10/07 01:13:31;;;;;;;13.80;4.88;;;17.00;99.90;;;;;;5136712;27;20034;-71
2023/10/07 01:15:59;;;;;;;13.80;5.40;;;17.00;99.90;;;;;;5137540;27;20099;-71
2023/10/07 01:18:27;;;;;;;13.25;4.72;;;17.00;99.90;;;;;;5137026;27;20043;-70
2023/10/07 01:21:05;;;;;;;13.63;5.38;;;17.00;99.90;;;;;;5137390;27;20046;-70
2023/10/07 01:23:34;;;;;;;13.60;4.18;;;17.00;99.90;;;;;;5156073;27;20039;-70
2023/10/07 01:26:02;;;;;;;17.05;4.30;;;17.00;99.90;;;;;;5136811;27;20050;-70
2023/10/07 01:28:32;;;;;;;19.40;5.15;;;17.00;99.90;;;;;;5137335;27;20409;-70
2023/10/07 01:31:09;;;;;;;14.88;4.55;;;17.00;99.90;;;;;;5137219;27;20058;-70
2023/10/07 01:33:39;;;;;;;15.68;4.82;;;17.00;99.90;;;;;;5136526;27;20126;-69
2023/10/07 01:36:16;;;;;;;18.63;4.80;;;17.00;99.90;;;;;;5136620;27;20418;-70
2023/10/07 01:38:48;;;;;;;14.32;4.55;;;17.10;99.90;;;;;;5126836;27;20047;-70
2023/10/07 01:41:18;;;;;;;12.43;4.28;;;17.10;99.90;;;;;;5117334;27;20129;-70
2023/10/07 01:43:56;;;;;;;12.77;4.10;;;17.10;99.90;;;;;;5117347;27;20111;-71
2023/10/07 01:46:27;;;;;;;12.63;3.80;;;17.10;99.90;;;;;;5135500;27;20047;-71
2023/10/07 01:48:57;;;;;;;14.50;4.68;;;17.20;99.90;;;;;;5136932;27;20046;-70
2023/10/07 01:51:26;;;;;;;11.15;3.92;;;17.20;99.90;;;;;;5136638;27;20047;-70
2023/10/07 01:53:56;;;;;;;14.73;4.27;;;17.20;99.90;;;;;;5119503;27;20039;-71
2023/10/07 01:56:26;;;;;;;12.85;3.95;;;17.20;99.90;;;;;;5117479;27;20134;-71
2023/10/07 01:58:54;;;;;;;15.20;3.97;;;17.30;99.90;;;;;;5117312;27;20086;-71
2023/10/07 02:01:22;;;;;;;15.77;4.07;;;17.30;99.90;;;;;;5116633;27;20490;-71
2023/10/07 02:03:50;;;;;;;13.10;3.75;;;17.30;99.90;;;;;;5117023;27;20066;-70
2023/10/07 02:06:19;;;;;;;22.50;4.22;;;17.30;99.90;;;;;;5119514;27;20055;-70
2023/10/07 02:08:46;;;;;;;13.82;3.70;;;17.30;99.90;;;;;;5116273;27;20073;-71
2023/10/07 02:11:18;;;;;;;15.35;4.07;;;17.30;99.90;;;;;;5116953;27;20057;-71
2023/10/07 02:13:46;;;;;;;10.52;3.20;;;17.30;99.90;;;;;;5136253;27;20039;-71
2023/10/07 02:16:16;;;;;;;11.45;3.53;;;17.40;99.90;;;;;;5135941;27;20062;-71
2023/10/07 02:18:47;;;;;;;11.93;4.20;;;17.40;99.90;;;;;;5116964;27;20142;-71
2023/10/07 02:21:16;;;;;;;11.50;3.50;;;17.40;99.90;;;;;;5117152;27;20050;-71
2023/10/07 02:23:44;;;;;;;15.65;3.83;;;17.40;99.90;;;;;;5116192;27;20122;-71
2023/10/07 02:26:17;;;;;;;12.95;4.00;;;17.40;99.90;;;;;;5116653;27;20079;-70
2023/10/07 02:28:46;;;;;;;12.60;3.80;;;17.40;99.90;;;;;;5116289;27;20047;-71
2023/10/07 02:31:17;;;;;;;12.35;3.33;;;17.40;99.90;;;;;;5116576;27;20509;-71
2023/10/07 02:33:45;;;;;;;18.10;4.68;;;17.40;99.90;;;;;;5116112;27;20039;-70
2023/10/07 02:36:28;;;;;;;10.27;3.45;;;17.40;99.90;;;;;;5134666;27;20104;-70
2023/10/07 02:38:56;;;;;;;10.00;4.07;;;17.50;99.90;;;;;;5135813;27;20482;-70
2023/10/07 02:41:25;;;;;;;14.13;4.40;;;17.50;99.90;;;;;;5134935;27;20478;-71
2023/10/07 02:43:53;;;;;;;12.82;3.38;;;17.40;99.90;;;;;;5115591;27;20039;-71
2023/10/07 02:46:31;;;;;;;14.40;4.38;;;17.40;99.90;;;;;;5116273;27;20047;-71
2023/10/07 02:49:05;;;;;;;11.02;3.40;;;17.50;99.90;;;;;;5116488;27;20055;-70
2023/10/07 02:51:33;;;;;;;17.17;5.15;;;17.50;99.90;;;;;;5117182;27;20050;-70
2023/10/07 02:54:06;;;;;;;15.55;4.22;;;17.50;99.90;;;;;;5115764;27;20100;-71
2023/10/07 02:56:43;;;;;;;11.35;3.80;;;17.50;99.90;;;;;;5116222;27;20565;-70
2023/10/07 02:59:27;;;;;;;14.32;3.88;;;17.50;99.90;;;;;;5135533;27;20454;-70
2023/10/07 03:02:19;;;;;;;9.60;3.92;;;17.50;99.90;;;;;;5135614;27;20053;-70
2023/10/07 03:05:13;;;;;;;9.52;3.80;;;17.50;99.90;;;;;;5134974;27;20046;-70
2023/10/07 03:07:42;;;;;;;8.95;3.15;;;17.50;99.90;;;;;;5135278;27;20378;-70
2023/10/07 03:10:18;;;;;;;11.55;3.17;;;17.50;99.90;;;;;;5135410;27;20397;-70
2023/10/07 03:12:47;;;;;;;13.15;3.42;;;17.50;99.90;;;;;;5134709;27;20079;-70
2023/10/07 03:15:30;;;;;;;13.00;4.13;;;17.50;99.90;;;;;;5134977;27;20447;-70
2023/10/07 03:17:57;;;;;;;13.27;3.92;;;17.50;99.90;;;;;;5153197;27;20074;-71
2023/10/07 03:20:31;;;;;;;17.35;4.35;;;17.50;99.90;;;;;;5134677;27;20054;-70
2023/10/07 03:23:17;;;;;;;10.45;3.67;;;17.50;99.90;;;;;;5134208;27;20411;-71
2023/10/07 03:26:05;;;;;;;14.48;4.03;;;17.60;99.90;;;;;;5133503;27;20510;-70
2023/10/07 03:28:36;;;;;;;17.55;4.20;;;17.50;99.90;;;;;;5134347;27;20406;-70
2023/10/07 03:31:12;;;;;;;11.90;3.33;;;17.50;99.90;;;;;;5135164;27;20047;-71
2023/10/07 03:33:49;;;;;;;13.55;3.60;;;17.50;99.90;;;;;;5114803;27;20146;-71
2023/10/07 03:36:31;;;;;;;10.13;3.92;;;17.60;99.90;;;;;;5115624;27;20125;-70
2023/10/07 03:39:16;;;;;;;9.60;3.35;;;17.60;99.90;;;;;;5132208;27;20436;-70
2023/10/07 03:41:47;;;;;;;15.43;4.20;;;17.50;99.90;;;;;;5134937;27;20133;-71
2023/10/07 03:44:15;;;;;;;16.98;3.85;;;17.60;99.90;;;;;;5134868;27;20133;-71
2023/10/07 03:46:44;;;;;;;10.88;3.53;;;17.50;99.90;;;;;;5133981;27;20050;-71
2023/10/07 03:49:11;;;;;;;16.50;4.35;;;17.50;99.90;;;;;;5134276;27;20095;-71
2023/10/07 03:51:38;;;;;;;11.70;3.40;;;17.50;99.90;;;;;;5153496;27;20057;-72
2023/10/07 03:54:15;;;;;;;16.13;4.40;;;17.60;99.90;;;;;;5133808;27;20676;-72
2023/10/07 03:56:42;;;;;;;10.13;3.45;;;17.50;99.90;;;;;;5134586;27;20051;-71
2023/10/07 03:59:09;;;;;;;11.40;3.92;;;17.50;99.90;;;;;;5134444;27;20054;-71
2023/10/07 04:01:42;;;;;;;18.02;4.05;;;17.50;99.90;;;;;;5133909;27;20049;-72
2023/10/07 04:04:11;;;;;;;13.75;3.65;;;17.50;99.90;;;;;;5134595;27;20050;-71
2023/10/07 04:06:39;;;;;;;14.77;3.75;;;17.50;99.90;;;;;;5115347;27;20095;-71
2023/10/07 04:09:11;;;;;;;13.65;4.10;;;17.50;99.90;;;;;;5114579;27;20696;-71
2023/10/07 04:11:48;;;;;;;15.82;3.67;;;17.50;99.90;;;;;;5115044;27;20059;-71
2023/10/07 04:14:22;;;;;;;17.98;3.92;;;17.50;99.90;;;;;;5114412;27;20826;-72
2023/10/07 04:16:50;;;;;;;13.63;4.15;;;17.50;99.90;;;;;;5115105;27;20100;-71
2023/10/07 04:19:35;;;;;;;11.90;3.70;;;17.50;99.90;;;;;;5115250;27;20150;-71
2023/10/07 04:22:03;;;;;;;14.68;4.38;;;17.50;99.90;;;;;;5114546;27;20124;-71
2023/10/07 04:24:30;;;;;;;11.38;4.07;;;17.50;99.90;;;;;;5114850;27;20039;-72
2023/10/07 04:27:03;;;;;;;12.50;4.32;;;17.50;99.90;;;;;;5114991;27;20392;-71
2023/10/07 04:29:31;;;;;;;16.17;4.18;;;17.50;99.90;;;;;;5132804;27;20530;-71
2023/10/07 04:32:05;;;;;;;13.35;3.88;;;17.60;99.90;;;;;;5115858;27;20055;-72
2023/10/07 04:34:46;;;;;;;15.05;4.07;;;17.60;99.90;;;;;;5136504;27;20095;-72
2023/10/07 04:37:16;;;;;;;12.27;4.07;;;17.50;99.90;;;;;;5137703;27;20085;-72
2023/10/07 04:42:36;;;;;;;15.75;4.13;;;17.50;99.90;;;;;;5116135;27;20053;-72
2023/10/07 04:45:21;;;;;;;12.13;4.13;;;17.50;99.90;;;;;;5137991;27;20047;-72
2023/10/07 04:47:49;;;;;;;13.73;3.55;;;17.50;99.90;;;;;;5118734;27;20106;-72
2023/10/07 04:50:19;;;;;;;14.10;3.50;;;17.50;99.90;;;;;;5117968;27;20058;-72
2023/10/07 04:52:51;;;;;;;13.63;4.07;;;17.50;99.90;;;;;;5118603;27;20519;-71
2023/10/07 04:55:19;;;;;;;13.00;4.05;;;17.60;99.90;;;;;;5118093;27;20039;-72
2023/10/07 04:57:57;;;;;;;15.88;4.43;;;17.60;99.90;;;;;;5117987;27;20047;-72
2023/10/07 05:00:34;;;;;;;11.73;4.13;;;17.50;99.90;;;;;;5136620;27;20441;-72
2023/10/07 05:03:03;;;;;;;11.73;4.07;;;17.60;99.90;;;;;;5137635;27;20050;-70
2023/10/07 05:05:33;;;;;;;12.40;4.20;;;17.50;99.90;;;;;;5117472;27;20133;-70
2023/10/07 05:08:08;;;;;;;14.00;4.20;;;17.60;99.90;;;;;;5118289;27;20057;-71
2023/10/07 05:10:38;;;;;;;14.30;4.70;;;17.60;99.90;;;;;;5117601;27;20047;-71
2023/10/07 05:13:06;;;;;;;15.93;3.97;;;17.60;99.90;;;;;;5118333;27;20445;-71
2023/10/07 05:15:34;;;;;;;16.52;5.20;;;17.50;99.90;;;;;;5117689;27;20109;-70
2023/10/07 05:18:01;;;;;;;18.55;5.07;;;17.50;99.90;;;;;;5117608;27;20115;-71
2023/10/07 05:20:28;;;;;;;14.52;3.95;;;17.50;99.90;;;;;;5118073;27;20062;-71
2023/10/07 05:23:00;;;;;;;14.02;4.20;;;17.50;99.90;;;;;;5117995;27;20047;-71
2023/10/07 05:25:27;;;;;;;12.30;4.35;;;17.50;99.90;;;;;;5117012;27;20127;-71
2023/10/07 05:27:55;;;;;;;10.50;4.30;;;17.50;99.90;;;;;;5117854;27;20051;-72
2023/10/07 05:30:23;;;;;;;12.07;4.03;;;17.50;99.90;;;;;;5117806;27;20055;-71
2023/10/07 05:32:50;;;;;;;14.43;3.60;;;17.50;99.90;;;;;;5117427;27;20073;-72
2023/10/07 05:35:18;;;;;;;8.75;3.38;;;17.50;99.90;;;;;;5117326;27;20043;-72
2023/10/07 05:37:45;;;;;;;15.10;4.05;;;17.50;99.90;;;;;;5135971;27;20157;-71
2023/10/07 05:40:15;;;;;;;9.90;3.65;;;17.50;99.90;;;;;;5116830;27;20054;-71
2023/10/07 05:42:43;;;;;;;11.07;2.70;;;17.50;99.90;;;;;;5117350;27;20070;-71
2023/10/07 05:45:12;;;;;;;12.13;3.30;;;17.50;99.90;;;;;;5117450;27;20039;-71
2023/10/07 05:47:39;;;;;;;13.65;3.55;;;17.50;99.90;;;;;;5116650;27;20050;-71
2023/10/07 05:50:08;;;;;;;8.63;3.55;;;17.50;99.90;;;;;;5121452;27;20510;-72
2023/10/07 05:52:35;;;;;;;11.02;3.47;;;17.50;99.90;;;;;;5118704;27;20039;-71
2023/10/07 05:55:02;;;;;;;17.08;3.85;;;17.90;99.90;;;;;;5131445;27;20679;-71
2023/10/07 05:57:30;;;;;;;10.20;3.20;;;17.50;99.90;;;;;;5121056;27;20074;-71
2023/10/07 05:59:58;;;;;;;10.80;3.95;;;17.40;99.90;;;;;;5128268;27;20135;-71
2023/10/07 06:02:26;;;;;;;9.25;3.50;;;17.40;99.90;;;;;;5117773;27;20053;-71
2023/10/07 06:04:53;;;;;;;12.10;3.33;;;17.40;99.90;;;;;;5117238;27;20096;-70
2023/10/07 06:07:21;;;;;;;12.07;3.83;;;17.30;99.90;;;;;;5134905;27;20502;-71
2023/10/07 06:09:48;;;;;;;14.50;4.60;;;17.30;99.90;;;;;;5119273;27;20055;-72
2023/10/07 06:12:16;;;;;;;15.52;3.47;;;17.20;99.90;;;;;;5135144;27;20046;-72
2023/10/07 06:14:44;;;;;;;17.58;4.90;;;17.20;99.90;;;;;;5118078;27;20042;-71
2023/10/07 06:17:11;;;;;;;15.80;4.07;;;17.10;99.90;;;;;;5116623;27;20043;-72
2023/10/07 06:19:40;;;;;;;15.15;4.03;;;17.10;99.90;;;;;;5119263;27;20047;-72
2023/10/07 06:22:12;;;;;;;12.98;3.75;;;17.10;99.90;;;;;;5122487;27;20130;-71
2023/10/07 06:24:40;;;;;;;13.65;4.10;;;17.10;99.90;;;;;;5118108;27;20717;-71
2023/10/07 06:27:11;;;;;;;16.02;4.07;;;17.10;99.90;;;;;;5118177;27;20050;-70
2023/10/07 06:29:43;;;;;;;11.57;3.65;;;17.10;99.90;;;;;;5122657;27;20134;-70
2023/10/07 06:32:22;;;;;;;15.43;4.32;;;17.00;99.90;;;;;;5118348;27;20054;-70
2023/10/07 06:34:51;;;;;;;10.07;3.30;;;17.10;99.90;;;;;;5118114;27;20182;-70
2023/10/07 06:37:28;;;;;;;8.77;3.13;;;17.10;99.90;;;;;;5117143;27;20524;-71
2023/10/07 06:39:57;;;;;;;14.35;3.83;;;17.10;99.90;;;;;;5121644;27;21083;-71
2023/10/07 06:42:24;;;;;;;10.45;3.55;;;17.20;99.90;;;;;;5117444;27;20047;-70
2023/10/07 06:44:54;;;;;;;14.05;3.85;;;17.20;99.90;;;;;;5118847;27;20123;-70
2023/10/07 06:47:24;;;;;;;8.73;3.30;;;17.20;99.90;;;;;;5116542;27;20053;-71
2023/10/07 06:49:52;;;;;;;;;;;17.20;99.90;;;;;;5117113;27;20051;-71
2023/10/07 06:52:22;;;;;;;13.07;3.58;;;17.20;99.90;;;;;;5130693;27;19988;-69
2023/10/07 06:54:49;;;;;;;10.15;3.08;;;17.20;99.90;;;;;;5100679;27;20136;-71
2023/10/07 06:57:17;;;;;;;14.82;4.55;;;17.20;99.90;;;;;;5129666;27;20043;-71
2023/10/07 06:59:45;;;;;;;12.35;3.67;;;17.20;99.90;;;;;;5126141;27;20039;-71
2023/10/07 07:02:18;;;;;;;15.00;3.90;;;17.20;99.90;;;;;;5131779;27;20049;-70
2023/10/07 07:04:47;;;;;;;10.38;2.83;;;16.70;99.90;;;;;;5114819;27;20047;-70
2023/10/07 07:07:16;;;;;;;9.95;3.13;;;17.30;99.90;;;;;;5117872;27;20106;-70
2023/10/07 07:09:50;;;;;;;11.07;3.53;;;17.40;99.90;;;;;;5125063;27;20138;-71
2023/10/07 07:12:21;;;;;;;11.30;3.30;;;17.40;99.90;;;;;;5131850;27;20046;-69
2023/10/07 07:14:52;;;;;;;11.30;3.15;;;17.40;99.90;;;;;;5127463;27;20077;-70
2023/10/07 07:17:43;;;;;;;7.60;3.60;;;17.50;99.90;;;;;;5123376;27;20057;-71
2023/10/07 07:23:10;;;;;;;11.77;3.80;;;17.50;99.90;;;;;;5085285;27;20077;-71
2023/10/07 07:25:39;;;;;;;12.13;3.20;;;17.50;99.90;;;;;;5115124;27;20053;-68
2023/10/07 07:28:09;;;;;;;12.10;3.20;;;17.50;99.90;;;;;;5122057;27;20043;-71
2023/10/07 07:30:36;;;;;;;12.95;3.50;;;17.50;99.90;;;;;;5124654;27;20051;-70
2023/10/07 07:33:08;;;;;;;19.85;3.78;;;17.60;99.90;;;;;;5125738;27;20042;-71
2023/10/07 07:35:43;;;;;;;19.42;4.03;;;17.60;99.90;;;;;;5130493;27;20047;-72
2023/10/07 07:38:29;;;;;;;10.23;3.13;;;17.70;99.90;;;;;;5118628;27;20059;-70
2023/10/07 07:41:06;;;;;;;15.30;3.17;;;17.70;99.90;;;;;;5127026;27;20078;-71
2023/10/07 07:43:34;;;;;;;6.70;3.25;;;17.80;99.90;;;;;;5125051;27;20054;-71
2023/10/07 07:46:17;;;;;;;11.63;3.10;;;17.90;99.90;;;;;;5146097;27;20051;-69
2023/10/07 07:48:45;;;;;;;12.77;3.40;;;18.00;99.90;;;;;;5134451;27;20477;-71
2023/10/07 07:51:16;;;;;;;9.52;3.03;;;18.10;99.90;;;;;;5116314;27;20587;-71
2023/10/07 07:53:43;;;;;;;6.60;2.65;;;18.10;99.90;;;;;;5114856;27;20078;-70
2023/10/07 07:56:12;;;;;;;8.25;2.65;;;18.30;99.90;;;;;;5119753;27;20379;-70
2023/10/07 07:58:40;;;;;;;9.00;2.67;;;18.30;99.90;;;;;;5115571;27;20058;-71
2023/10/07 08:01:15;;;;;;;10.82;3.17;;;18.40;99.90;;;;;;5117710;27;20077;-70
2023/10/07 08:03:42;;;;;;;12.77;3.95;;;18.50;99.90;;;;;;5116643;27;20096;-71
2023/10/07 08:06:11;;;;;;;11.57;2.97;;;18.70;99.90;;;;;;5116161;27;20051;-71
2023/10/07 08:08:40;;;;;;;12.40;3.08;;;18.70;99.90;;;;;;5122966;27;20088;-71
2023/10/07 08:11:07;;;;;;;11.68;3.22;;;18.70;99.90;;;;;;5121650;27;20108;-72
2023/10/07 08:13:34;;;;;;;10.05;3.35;;;18.80;99.90;;;;;;5121063;27;20054;-70
2023/10/07 08:16:06;;;;;;;14.95;3.42;;;18.70;99.90;;;;;;5121597;27;20055;-70
2023/10/07 08:18:33;;;;;;;16.67;4.28;;;18.70;99.90;;;;;;5142416;27;20047;-71
2023/10/07 08:23:47;;;;;;;12.77;3.67;;;18.60;99.90;;;;;;5125039;27;20043;-71
2023/10/07 08:26:22;;;;;;;9.00;3.72;;;18.50;99.90;;;;;;5127483;27;20092;-72
2023/10/07 08:29:00;;;;;;;9.13;3.60;;;18.50;99.90;;;;;;5119957;27;20055;-72
2023/10/07 08:31:37;;;;;;;11.32;3.65;;;18.50;99.90;;;;;;5123739;27;20555;-72
2023/10/07 08:34:09;;;;;;;11.07;3.50;;;18.50;99.90;;;;;;5120221;27;20054;-73
2023/10/07 08:36:37;;;;;;;11.02;3.03;;;18.40;99.90;;;;;;5139080;27;20046;-73
2023/10/07 08:39:08;;;;;;;8.73;3.10;;;18.50;99.90;;;;;;5125485;27;20074;-73
2023/10/07 08:41:37;;;;;;;11.93;3.53;;;18.50;99.90;;;;;;5138773;27;20050;-71
2023/10/07 08:44:13;;;;;;;11.10;3.40;;;18.40;99.90;;;;;;5144119;27;20123;-71
2023/10/07 08:46:40;;;;;;;13.55;3.60;;;18.50;99.90;;;;;;5129137;27;20122;-71
2023/10/07 08:49:13;;;;;;;12.57;4.60;;;18.60;99.90;;;;;;5124944;27;20091;-70
2023/10/07 08:51:41;;;;;;;11.32;3.42;;;18.60;99.90;;;;;;5136584;27;20054;-71
2023/10/07 08:54:19;;;;;;;13.52;3.30;;;18.60;99.90;;;;;;5133143;27;20050;-70
2023/10/07 08:56:54;;;;;;;9.73;3.88;;;18.80;99.90;;;;;;5120206;27;20092;-71
2023/10/07 08:59:22;;;;;;;13.60;3.97;;;18.70;99.90;;;;;;5119806;27;20505;-70
2023/10/07 09:01:57;;;;;;;14.13;4.03;;;18.70;99.90;;;;;;5155137;27;20050;-70
2023/10/07 09:04:25;;;;;;;15.90;3.97;;;18.60;99.90;;;;;;5137319;27;20043;-70
2023/10/07 09:06:52;;;;;;;12.95;3.95;;;18.70;99.90;;;;;;5137666;27;20058;-70
2023/10/07 09:09:35;;;;;;;13.02;3.70;;;18.60;99.90;;;;;;5156240;27;20099;-70
2023/10/07 09:12:08;;;;;;;12.88;3.88;;;18.60;99.90;;;;;;5137688;27;20065;-70
2023/10/07 09:14:36;;;;;;;13.68;3.50;;;18.70;99.90;;;;;;5137541;27;20753;-71
2023/10/07 09:17:04;;;;;;;11.63;3.40;;;18.70;99.90;;;;;;5135785;27;20042;-70
2023/10/07 09:19:31;;;;;;;10.60;3.55;;;18.80;99.90;;;;;;5136517;27;20047;-71
2023/10/07 09:21:59;;;;;;;13.15;4.40;;;18.80;99.90;;;;;;5137583;27;20050;-70
2023/10/07 09:24:26;;;;;;;15.23;3.97;;;18.80;99.90;;;;;;5119877;27;20051;-70
2023/10/07 09:26:57;;;;;;;11.43;4.38;;;18.90;99.90;;;;;;5117767;27;20092;-70
2023/10/07 09:29:25;;;;;;;15.23;4.35;;;18.80;99.90;;;;;;5117926;27;20134;-70
2023/10/07 09:31:59;;;;;;;11.65;4.22;;;18.80;99.90;;;;;;5117244;27;20051;-71
2023/10/07 09:34:41;;;;;;;13.52;3.80;;;18.90;99.90;;;;;;5136155;27;20039;-70
2023/10/07 09:37:12;;;;;;;12.52;3.88;;;18.90;99.90;;;;;;5117599;27;20042;-70
2023/10/07 09:39:45;;;;;;;13.70;4.38;;;18.70;99.90;;;;;;5134737;27;20428;-70
2023/10/07 09:42:36;;;;;;;13.32;4.25;;;18.80;99.90;;;;;;5117790;27;20133;-70
2023/10/07 09:45:16;;;;;;;11.85;4.80;;;18.70;99.90;;;;;;5134388;27;20046;-70
2023/10/07 09:47:44;;;;;;;14.52;3.80;;;18.70;99.90;;;;;;5136599;27;20047;-70
2023/10/07 09:50:19;;;;;;;15.23;4.43;;;18.70;99.90;;;;;;5136552;27;20043;-70
2023/10/07 09:52:52;;;;;;;17.33;5.15;;;18.60;99.90;;;;;;5136117;27;20398;-70
2023/10/07 09:55:40;;;;;;;17.92;5.35;;;18.70;99.90;;;;;;5136737;27;20051;-70
2023/10/07 09:58:34;;;;;;;15.98;4.82;;;18.60;99.90;;;;;;5136389;27;20054;-70
2023/10/07 10:01:28;;;;;;;16.25;4.43;;;18.70;99.90;;;;;;5136179;27;20405;-70
2023/10/07 10:04:21;;;;;;;13.90;4.57;;;18.60;99.90;;;;;;5136311;27;20043;-70
2023/10/07 10:07:05;;;;;;;6.75;3.55;;;18.60;99.90;;;;;;5135913;27;20050;-70
2023/10/07 10:09:45;;;;;;;14.23;4.65;;;18.70;99.90;;;;;;5154940;27;20044;-70
2023/10/07 10:12:22;;;;;;;13.57;4.20;;;18.80;99.90;;;;;;5136715;27;20401;-70
2023/10/07 10:15:50;;;;;;;15.90;4.90;;;18.90;99.90;;;;;;5116527;27;20058;-70
2023/10/07 10:17:48;;;;;;;17.20;4.30;;;19.00;99.90;;;;;;5135100;27;20047;-70
2023/10/07 10:20:18;;;;;;;13.77;4.38;;;19.20;99.90;;;;;;5136034;27;20050;-69
2023/10/07 10:22:52;;;;;;;11.30;4.10;;;19.30;99.90;;;;;;5116912;27;20119;-70
2023/10/07 10:25:31;;;;;;;13.70;4.43;;;19.20;99.90;;;;;;5134138;27;20085;-70
2023/10/07 10:28:01;;;;;;;8.88;4.22;;;19.30;99.90;;;;;;5134573;27;20048;-70
2023/10/07 10:30:30;;;;;;;16.38;5.35;;;19.20;99.90;;;;;;5134106;27;20043;-70
2023/10/07 10:33:02;;;;;;;17.25;4.65;;;19.30;99.90;;;;;;5134502;27;20046;-70
2023/10/07 10:35:33;;;;;;;16.77;4.63;;;19.30;99.90;;;;;;5134007;27;20035;-69
2023/10/07 10:38:00;;;;;;;15.65;4.53;;;19.40;99.90;;;;;;5131810;27;20543;-70
2023/10/07 10:40:31;;;;;;;12.15;4.43;;;19.50;99.90;;;;;;5130127;27;20057;-69
2023/10/07 10:42:59;;;;;;;13.60;4.03;;;19.60;99.90;;;;;;5119583;27;20126;-70
2023/10/07 10:45:29;;;;;;;11.45;4.00;;;19.60;99.90;;;;;;5142517;27;20047;-69
2023/10/07 10:47:59;;;;;;;15.82;4.13;;;19.50;99.90;;;;;;5134946;27;20410;-70
2023/10/07 10:50:28;;;;;;;15.65;4.57;;;19.50;99.90;;;;;;5116172;27;20089;-69
2023/10/07 10:52:56;;;;;;;14.87;5.07;;;19.60;99.90;;;;;;5117201;27;20546;-69
2023/10/07 10:55:24;;;;;;;8.75;4.22;;;19.70;99.90;;;;;;5117314;27;20476;-70
2023/10/07 10:57:52;;;;;;;16.55;3.95;;;19.70;99.90;;;;;;5130222;27;20039;-70
2023/10/07 11:00:21;;;;;;;15.68;5.05;;;19.50;99.90;;;;;;5117749;27;20053;-71
2023/10/07 11:02:49;;;;;;;19.75;4.95;;;19.50;99.90;;;;;;5135054;27;20051;-70
2023/10/07 11:05:18;;;;;;;11.60;4.40;;;19.40;99.90;;;;;;5119583;27;20051;-70
2023/10/07 11:07:50;;;;;;;10.63;4.28;;;19.40;99.90;;;;;;5123252;27;20088;-70
2023/10/07 11:10:20;;;;;;;12.95;4.30;;;19.30;99.90;;;;;;5123242;27;20083;-70
2023/10/07 11:12:52;;;;;;;12.02;4.57;;;19.20;99.90;;;;;;5117284;27;20046;-70
2023/10/07 11:15:24;;;;;;;9.95;4.18;;;19.30;99.90;;;;;;5118221;27;20047;-70
2023/10/07 11:17:56;;;;;;;11.70;4.38;;;19.20;99.90;;;;;;5118292;27;20135;-70
2023/10/07 11:20:25;;;;;;;12.93;4.85;;;19.20;99.90;;;;;;5116506;27;20545;-70
2023/10/07 11:22:53;;;;;;;13.18;4.50;;;19.20;99.90;;;;;;5119863;27;20051;-70
2023/10/07 11:25:24;;;;;;;13.23;4.47;;;19.20;99.90;;;;;;5116782;27;20051;-70
2023/10/07 11:27:51;;;;;;;15.40;3.88;;;19.30;99.90;;;;;;5117448;27;20054;-70
2023/10/07 11:30:21;;;;;;;12.32;3.90;;;19.30;99.90;;;;;;5115896;27;20055;-70
2023/10/07 11:32:48;;;;;;;12.95;4.00;;;19.30;99.90;;;;;;5124612;27;20058;-70
2023/10/07 11:35:20;;;;;;;12.52;4.30;;;19.20;99.90;;;;;;5118160;27;20054;-70
2023/10/07 11:37:57;;;;;;;14.25;3.63;;;19.10;99.90;;;;;;5114913;27;20068;-69
2023/10/07 11:40:24;;;;;;;13.38;4.07;;;19.00;99.90;;;;;;5123180;27;20050;-70
2023/10/07 11:42:52;;;;;;;13.02;5.28;;;19.00;99.90;;;;;;5143733;27;20047;-70
2023/10/07 11:45:23;;;;;;;12.50;4.68;;;19.00;99.90;;;;;;5120470;27;20042;-69
2023/10/07 11:47:50;;;;;;;12.88;3.58;;;19.00;99.90;;;;;;5123435;27;20261;-70
2023/10/07 11:50:17;;;;;;;12.10;4.35;;;19.20;99.90;;;;;;5114830;27;20066;-70
2023/10/07 11:52:46;;;;;;;13.35;3.95;;;19.40;99.90;;;;;;5113832;27;20498;-69
2023/10/07 11:55:17;;;;;;;13.93;4.32;;;19.70;99.90;;;;;;5140467;27;20046;-69
2023/10/07 11:57:44;;;;;;;12.50;3.97;;;19.70;99.90;;;;;;5126772;27;20042;-70
2023/10/07 12:00:22;;;;;;;11.27;4.10;;;19.70;99.90;;;;;;5120843;27;20538;-70
2023/10/07 12:02:50;;;;;;;14.68;4.80;;;19.60;99.90;;;;;;5136349;27;20099;-72
2023/10/07 12:05:17;;;;;;;13.27;4.38;;;19.50;99.90;;;;;;5133549;27;20046;-69
2023/10/07 12:07:47;;;;;;;13.18;4.10;;;19.40;99.90;;;;;;5114229;27;20107;-69
2023/10/07 12:10:16;;;;;;;;;;;19.30;99.90;;;;;;5114541;27;20039;-71
2023/10/07 12:12:44;;;;;;;10.00;4.32;;;19.20;99.90;;;;;;5114469;27;20032;-71
2023/10/07 12:15:15;;;;;;;15.38;4.28;;;19.10;99.90;;;;;;5116108;27;20048;-70
2023/10/07 12:17:42;;;;;;;14.13;4.57;;;19.00;99.90;;;;;;5124589;27;20044;-70
2023/10/07 12:20:12;;;;;;;10.60;4.03;;;19.10;99.90;;;;;;5115609;27;20054;-71
2023/10/07 12:22:42;;;;;;;12.88;3.92;;;19.00;99.90;;;;;;5116328;27;20055;-71
2023/10/07 12:25:13;;;;;;;10.17;3.87;;;18.90;99.90;;;;;;5128564;27;20079;-70
2023/10/07 12:27:42;;;;;;;14.85;4.60;;;18.90;99.90;;;;;;5116657;27;20047;-70
2023/10/07 12:30:12;;;;;;;10.70;4.30;;;18.90;99.90;;;;;;5116166;27;20054;-71
2023/10/07 12:32:39;;;;;;;10.45;4.35;;;18.90;99.90;;;;;;5126844;27;20160;-70
2023/10/07 12:35:09;;;;;;;11.27;3.75;;;19.00;99.90;;;;;;5116959;27;20067;-71
2023/10/07 12:37:38;;;;;;;15.60;5.13;;;18.90;99.90;;;;;;5115335;27;20043;-70
2023/10/07 12:40:10;;;;;;;15.10;4.55;;;19.00;99.90;;;;;;5116369;27;20043;-71
2023/10/07 12:42:37;;;;;;;9.55;3.80;;;18.90;99.90;;;;;;5119784;27;20057;-70
2023/10/07 12:45:06;;;;;;;10.90;4.38;;;19.10;99.90;;;;;;5117167;27;20464;-71
2023/10/07 12:47:34;;;;;;;15.83;4.13;;;19.10;99.90;;;;;;5127399;27;20045;-71
2023/10/07 12:50:20;;;;;;;12.30;4.47;;;19.20;99.90;;;;;;5118600;27;20293;-70
2023/10/07 12:52:47;;;;;;;11.50;4.60;;;19.10;99.90;;;;;;5123832;27;20046;-70
2023/10/07 12:55:14;;;;;;;12.43;3.83;;;19.00;99.90;;;;;;5123793;27;20055;-69
2023/10/07 12:57:41;;;;;;;15.75;4.30;;;19.00;99.90;;;;;;5128854;27;20043;-70
2023/10/07 13:00:22;;;;;;;12.05;4.57;;;18.90;99.90;;;;;;5141505;27;20075;-70
2023/10/07 13:02:49;;;;;;;12.80;4.47;;;18.90;99.90;;;;;;5133362;27;20076;-70
2023/10/07 13:05:19;;;;;;;11.82;4.75;;;18.80;99.90;;;;;;5141075;27;20051;-69
2023/10/07 13:07:46;;;;;;;12.85;3.65;;;18.80;99.90;;;;;;5126529;27;20051;-69
2023/10/07 13:10:14;;;;;;;13.52;4.10;;;18.70;99.90;;;;;;5118297;27;20051;-69
2023/10/07 13:12:41;;;;;;;13.07;3.67;;;18.70;99.90;;;;;;5132003;27;20153;-69